createdAt,value
2023-02-27T00:01:34.132Z,1.58
2023-02-27T00:04:04.516Z,2.00
2023-02-27T00:06:37.320Z,7.10
2023-02-27T00:09:08.746Z,3.85
2023-02-27T00:11:39.026Z,5.00
2023-02-27T00:14:09.547Z,5.55
2023-02-27T00:16:42.410Z,4.88
2023-02-27T00:19:13.638Z,4.28
2023-02-27T00:21:44.696Z,3.88
2023-02-27T00:24:15.236Z,2.13
2023-02-27T00:26:45.427Z,3.25
2023-02-27T00:29:15.673Z,3.13
2023-02-27T00:31:48.512Z,2.40
2023-02-27T00:34:18.812Z,2.30
2023-02-27T00:36:49.044Z,4.00
2023-02-27T00:39:19.292Z,5.68
2023-02-27T00:41:49.495Z,4.18
2023-02-27T00:44:19.736Z,2.78
2023-02-27T00:46:52.601Z,5.03
2023-02-27T00:49:22.873Z,4.43
2023-02-27T00:51:53.098Z,2.92
2023-02-27T00:54:23.476Z,3.88
2023-02-27T00:56:53.688Z,5.43
2023-02-27T00:59:24.061Z,6.32
2023-02-27T01:01:56.937Z,5.72
2023-02-27T01:04:27.428Z,6.93
2023-02-27T01:06:57.716Z,2.85
2023-02-27T01:09:28.078Z,7.57
2023-02-27T01:11:58.386Z,2.30
2023-02-27T01:14:28.650Z,2.03
2023-02-27T01:17:01.472Z,2.05
2023-02-27T01:19:31.771Z,3.35
2023-02-27T01:22:01.975Z,4.35
2023-02-27T01:24:32.323Z,2.92
2023-02-27T01:27:02.587Z,3.15
2023-02-27T01:29:32.803Z,1.38
2023-02-27T01:32:05.765Z,4.38
2023-02-27T01:34:36.068Z,2.50
2023-02-27T01:37:06.479Z,2.45
2023-02-27T01:39:37.006Z,4.68
2023-02-27T01:42:07.710Z,2.22
2023-02-27T01:44:57.913Z,4.40
2023-02-27T01:47:30.707Z,1.65
2023-02-27T01:50:01.111Z,2.63
2023-02-27T01:52:31.649Z,2.75
2023-02-27T01:55:02.212Z,4.32
2023-02-27T01:57:32.725Z,2.85
2023-02-27T02:00:02.976Z,3.38
2023-02-27T02:02:38.288Z,2.78
2023-02-27T02:05:10.021Z,3.55
2023-02-27T02:10:11.936Z,2.08
2023-02-27T02:12:42.219Z,1.73
2023-02-27T02:15:12.958Z,3.17
2023-02-27T02:17:50.013Z,1.73
2023-02-27T02:20:41.259Z,3.00
2023-02-27T02:23:27.378Z,4.22
2023-02-27T02:26:12.570Z,7.07
2023-02-27T02:29:05.020Z,4.03
2023-02-27T02:31:48.934Z,1.60
2023-02-27T02:34:45.864Z,3.95
2023-02-27T02:37:31.105Z,5.53
2023-02-27T02:40:08.829Z,2.00
2023-02-27T02:42:43.608Z,2.70
2023-02-27T02:45:15.990Z,1.15
2023-02-27T02:47:51.144Z,3.22
2023-02-27T02:50:24.090Z,2.33
2023-02-27T02:52:59.242Z,2.80
2023-02-27T02:55:36.022Z,4.40
2023-02-27T02:58:09.385Z,6.43
2023-02-27T03:00:41.945Z,1.77
2023-02-27T03:03:15.873Z,2.42
2023-02-27T03:05:50.402Z,2.58
2023-02-27T03:08:23.312Z,3.28
2023-02-27T03:10:57.876Z,2.63
2023-02-27T03:13:30.955Z,2.38
2023-02-27T03:16:04.269Z,2.35
2023-02-27T03:18:36.340Z,3.28
2023-02-27T03:21:08.670Z,2.50
2023-02-27T03:23:41.511Z,3.63
2023-02-27T03:26:18.671Z,2.38
2023-02-27T03:28:52.264Z,1.92
2023-02-27T03:31:26.581Z,3.08
2023-02-27T03:34:01.421Z,2.28
2023-02-27T03:36:37.194Z,2.22
2023-02-27T03:39:10.904Z,3.00
2023-02-27T03:41:46.575Z,6.15
2023-02-27T03:44:19.158Z,4.00
2023-02-27T03:46:49.432Z,1.20
2023-02-27T03:49:19.749Z,5.65
2023-02-27T03:51:50.178Z,3.67
2023-02-27T03:54:22.100Z,1.90
2023-02-27T03:56:58.552Z,3.58
2023-02-27T03:59:29.580Z,4.38
2023-02-27T04:02:00.376Z,2.97
2023-02-27T04:04:32.022Z,1.88
2023-02-27T04:09:57.423Z,2.95
2023-02-27T04:12:38.297Z,3.17
2023-02-27T04:15:12.238Z,2.53
2023-02-27T04:17:46.416Z,2.15
2023-02-27T04:20:21.436Z,4.57
2023-02-27T04:22:52.999Z,2.10
2023-02-27T04:25:39.242Z,2.95
2023-02-27T04:28:15.901Z,4.10
2023-02-27T04:30:49.751Z,2.75
2023-02-27T04:33:25.113Z,1.88
2023-02-27T04:35:56.829Z,6.95
2023-02-27T04:40:59.302Z,3.00
2023-02-27T04:43:32.652Z,3.40
2023-02-27T04:46:05.139Z,3.80
2023-02-27T04:48:37.938Z,2.75
2023-02-27T04:51:11.380Z,9.63
2023-02-27T04:53:44.662Z,5.35
2023-02-27T04:56:17.706Z,4.65
2023-02-27T04:58:52.765Z,2.78
2023-02-27T05:01:27.510Z,5.18
2023-02-27T05:04:00.356Z,2.30
2023-02-27T05:06:31.530Z,2.70
2023-02-27T05:09:04.941Z,2.92
2023-02-27T05:11:38.374Z,3.45
2023-02-27T05:14:15.174Z,3.00
2023-02-27T05:16:48.388Z,4.30
2023-02-27T05:19:18.767Z,6.07
2023-02-27T05:21:53.824Z,3.72
2023-02-27T05:24:28.326Z,3.40
2023-02-27T05:27:08.229Z,4.05
2023-02-27T05:29:44.871Z,2.70
2023-02-27T05:32:19.990Z,6.40
2023-02-27T05:34:53.039Z,3.05
2023-02-27T05:37:25.481Z,3.38
2023-02-27T05:39:56.490Z,3.30
2023-02-27T05:42:29.423Z,4.45
2023-02-27T05:45:04.283Z,3.65
2023-02-27T05:47:36.287Z,2.75
2023-02-27T05:50:12.032Z,5.18
2023-02-27T05:52:43.608Z,3.05
2023-02-27T05:55:18.645Z,3.60
2023-02-27T05:57:50.564Z,2.55
2023-02-27T06:02:54.248Z,5.10
2023-02-27T06:05:24.512Z,2.17
2023-02-27T06:07:54.739Z,2.83
2023-02-27T06:10:25.991Z,2.55
2023-02-27T06:12:56.277Z,2.30
2023-02-27T06:15:26.463Z,2.20
2023-02-27T06:17:59.376Z,3.15
2023-02-27T06:20:30.727Z,2.95
2023-02-27T06:23:00.994Z,2.47
2023-02-27T06:25:31.677Z,2.40
2023-02-27T06:28:01.991Z,3.10
2023-02-27T06:30:32.283Z,2.40
2023-02-27T06:33:05.594Z,2.08
2023-02-27T06:35:35.973Z,3.40
2023-02-27T06:38:06.287Z,3.13
2023-02-27T06:40:37.404Z,3.85
2023-02-27T06:43:07.826Z,4.15
2023-02-27T06:45:38.517Z,5.00
2023-02-27T06:48:12.917Z,3.60
2023-02-27T06:50:43.207Z,4.65
2023-02-27T06:53:13.467Z,2.38
2023-02-27T06:55:43.727Z,3.80
2023-02-27T06:58:13.969Z,3.78
2023-02-27T07:00:44.189Z,3.15
2023-02-27T07:03:17.256Z,6.05
2023-02-27T07:05:47.460Z,1.95
2023-02-27T07:08:18.341Z,3.90
2023-02-27T07:10:49.273Z,4.30
2023-02-27T07:13:20.101Z,8.23
2023-02-27T07:15:50.466Z,3.28
2023-02-27T07:18:23.735Z,6.00
2023-02-27T07:20:55.356Z,6.03
2023-02-27T07:23:25.828Z,2.35
2023-02-27T07:25:56.146Z,8.25
2023-02-27T07:28:26.440Z,6.25
2023-02-27T07:30:57.475Z,5.25
2023-02-27T07:33:31.510Z,4.07
2023-02-27T07:36:01.851Z,7.95
2023-02-27T07:38:32.579Z,27.05
2023-02-27T07:41:02.821Z,24.23
2023-02-27T07:43:33.063Z,39.20
2023-02-27T07:46:04.157Z,60.92
2023-02-27T07:48:37.167Z,63.92
2023-02-27T07:51:07.499Z,56.90
2023-02-27T07:53:37.772Z,19.48
2023-02-27T07:56:08.312Z,62.40
2023-02-27T07:58:38.551Z,19.95
2023-02-27T08:01:09.053Z,15.00
2023-02-27T08:03:41.950Z,5.93
2023-02-27T08:06:12.245Z,71.38
2023-02-27T08:08:42.618Z,8.27
2023-02-27T08:11:12.889Z,9.45
2023-02-27T08:13:59.662Z,5.88
2023-02-27T08:16:31.416Z,12.52
2023-02-27T08:19:04.749Z,9.32
2023-02-27T08:21:35.000Z,6.80
2023-02-27T08:24:05.402Z,7.43
2023-02-27T08:26:35.686Z,8.23
2023-02-27T08:29:05.965Z,5.30
2023-02-27T08:31:36.303Z,12.18
2023-02-27T08:34:10.943Z,5.50
2023-02-27T08:36:41.400Z,12.98
2023-02-27T08:39:13.023Z,15.40
2023-02-27T08:41:43.434Z,11.38
2023-02-27T08:44:14.741Z,2.78
2023-02-27T08:46:45.013Z,4.57
2023-02-27T08:49:20.017Z,4.10
2023-02-27T08:51:51.631Z,9.05
2023-02-27T08:54:22.271Z,5.65
2023-02-27T08:56:52.497Z,6.85
2023-02-27T08:59:23.083Z,13.05
2023-02-27T09:01:53.306Z,6.47
2023-02-27T09:04:26.486Z,6.95
2023-02-27T09:06:57.534Z,4.57
2023-02-27T09:09:28.182Z,4.90
2023-02-27T09:11:58.404Z,5.03
2023-02-27T09:14:28.730Z,8.63
2023-02-27T09:16:59.074Z,4.38
2023-02-27T09:19:32.115Z,13.48
2023-02-27T09:22:02.358Z,5.57
2023-02-27T09:24:32.970Z,6.32
2023-02-27T09:27:03.187Z,5.97
2023-02-27T09:29:33.430Z,6.70
2023-02-27T09:32:03.739Z,5.88
2023-02-27T09:34:37.040Z,4.60
2023-02-27T09:37:07.236Z,17.83
2023-02-27T09:39:37.523Z,5.28
2023-02-27T09:42:09.800Z,6.57
2023-02-27T09:44:46.991Z,3.70
2023-02-27T09:47:20.135Z,6.40
2023-02-27T09:50:05.167Z,4.82
2023-02-27T09:52:38.663Z,10.07
2023-02-27T09:55:10.048Z,6.88
2023-02-27T09:57:45.936Z,5.28
2023-02-27T10:00:23.855Z,21.30
2023-02-27T10:02:57.971Z,6.85
2023-02-27T10:05:34.872Z,5.65
2023-02-27T10:08:13.074Z,5.30
2023-02-27T10:10:47.635Z,3.22
2023-02-27T10:13:31.941Z,2.65
2023-02-27T10:16:03.490Z,3.08
2023-02-27T10:18:34.395Z,3.05
2023-02-27T10:21:05.505Z,2.50
2023-02-27T10:23:40.502Z,3.03
2023-02-27T10:26:11.806Z,3.72
2023-02-27T10:28:42.221Z,3.97
2023-02-27T10:31:21.126Z,3.03
2023-02-27T10:33:51.918Z,3.08
2023-02-27T10:36:33.012Z,3.42
2023-02-27T10:39:09.510Z,1.73
2023-02-27T10:41:41.178Z,2.10
2023-02-27T10:44:12.262Z,2.75
2023-02-27T10:46:43.849Z,3.25
2023-02-27T10:49:19.034Z,3.42
2023-02-27T10:51:49.974Z,1.90
2023-02-27T10:56:53.705Z,1.48
2023-02-27T10:59:25.195Z,2.65
2023-02-27T11:01:57.204Z,2.72
2023-02-27T11:04:28.810Z,4.00
2023-02-27T11:06:59.495Z,2.88
2023-02-27T11:09:32.268Z,1.77
2023-02-27T11:12:21.798Z,5.05
2023-02-27T11:14:52.806Z,3.75
2023-02-27T11:17:27.625Z,25.85
2023-02-27T11:19:57.895Z,18.35
2023-02-27T11:22:32.291Z,4.50
2023-02-27T11:25:21.971Z,3.13
2023-02-27T11:27:54.937Z,1.92
2023-02-27T11:30:27.801Z,3.60
2023-02-27T11:32:59.168Z,1.45
2023-02-27T11:35:32.014Z,2.67
2023-02-27T11:38:03.784Z,2.58
2023-02-27T11:40:35.069Z,1.60
2023-02-27T11:43:09.307Z,4.90
2023-02-27T11:46:19.033Z,4.85
2023-02-27T11:48:33.254Z,2.67
2023-02-27T11:51:24.538Z,3.60
2023-02-27T11:54:05.838Z,2.17
2023-02-27T11:56:39.297Z,1.65
2023-02-27T11:59:17.827Z,1.20
2023-02-27T12:01:52.184Z,1.30
2023-02-27T12:04:25.090Z,3.10
2023-02-27T12:06:57.617Z,1.30
2023-02-27T12:09:36.338Z,1.95
2023-02-27T12:12:09.035Z,1.88
2023-02-27T12:14:46.609Z,1.73
2023-02-27T12:17:19.596Z,2.38
2023-02-27T12:19:57.217Z,0.88
2023-02-27T12:22:30.124Z,1.83
2023-02-27T12:25:02.634Z,1.02
2023-02-27T12:27:37.672Z,1.20
2023-02-27T12:30:17.213Z,2.95
2023-02-27T12:32:50.296Z,1.23
2023-02-27T12:35:23.132Z,2.58
2023-02-27T12:37:53.656Z,1.38
2023-02-27T12:40:25.102Z,3.03
2023-02-27T12:43:03.954Z,1.92
2023-02-27T12:45:54.997Z,2.90
2023-02-27T12:48:34.831Z,4.10
2023-02-27T12:51:10.921Z,2.28
2023-02-27T12:53:54.645Z,1.90
2023-02-27T12:56:25.444Z,2.70
2023-02-27T12:59:02.743Z,4.53
2023-02-27T13:01:39.651Z,0.98
2023-02-27T13:04:19.811Z,2.78
2023-02-27T13:06:53.430Z,1.80
2023-02-27T13:09:26.689Z,0.82
2023-02-27T13:11:59.679Z,1.83
2023-02-27T13:14:33.342Z,2.50
2023-02-27T13:17:06.738Z,1.63
2023-02-27T13:19:43.094Z,1.85
2023-02-27T13:22:17.407Z,1.88
2023-02-27T13:24:49.481Z,2.22
2023-02-27T13:27:23.530Z,1.70
2023-02-27T13:29:58.578Z,1.83
2023-02-27T13:32:43.071Z,2.20
2023-02-27T13:35:29.699Z,3.03
2023-02-27T13:38:02.461Z,1.70
2023-02-27T13:40:37.242Z,3.00
2023-02-27T13:43:09.528Z,3.95
2023-02-27T13:45:53.502Z,1.50
2023-02-27T13:48:40.184Z,1.50
2023-02-27T13:51:35.466Z,2.50
2023-02-27T13:54:18.600Z,2.97
2023-02-27T13:56:50.488Z,7.20
2023-02-27T13:59:25.444Z,2.70
2023-02-27T14:01:59.865Z,2.55
2023-02-27T14:04:32.653Z,1.63
2023-02-27T14:07:07.400Z,1.73
2023-02-27T14:09:39.171Z,1.70
2023-02-27T14:12:11.164Z,2.63
2023-02-27T14:14:45.341Z,2.75
2023-02-27T14:17:16.512Z,2.13
2023-02-27T14:20:02.262Z,2.10
2023-02-27T14:22:37.364Z,2.38
2023-02-27T14:25:28.269Z,1.50
2023-02-27T14:28:00.591Z,1.90
2023-02-27T14:30:39.498Z,1.30
2023-02-27T14:33:17.832Z,3.45
2023-02-27T14:35:50.482Z,3.05
2023-02-27T14:38:24.074Z,2.47
2023-02-27T14:41:04.552Z,3.50
2023-02-27T14:43:39.472Z,5.88
2023-02-27T14:46:11.348Z,5.47
2023-02-27T14:48:41.882Z,2.10
2023-02-27T14:51:12.219Z,2.17
2023-02-27T14:53:45.141Z,3.92
2023-02-27T14:56:20.607Z,2.35
2023-02-27T14:59:03.720Z,2.45
2023-02-27T15:01:38.670Z,1.88
2023-02-27T15:04:09.228Z,1.85
2023-02-27T15:06:41.039Z,2.72
2023-02-27T15:09:21.197Z,4.30
2023-02-27T15:12:02.918Z,3.88
2023-02-27T15:14:36.997Z,1.80
2023-02-27T15:17:08.765Z,3.28
2023-02-27T15:19:40.127Z,3.22
2023-02-27T15:22:36.168Z,3.45
2023-02-27T15:25:23.659Z,3.85
2023-02-27T15:27:56.725Z,2.10
2023-02-27T15:30:27.255Z,1.40
2023-02-27T15:32:57.988Z,1.95
2023-02-27T15:35:29.550Z,1.80
2023-02-27T15:38:01.177Z,1.00
2023-02-27T15:40:32.790Z,1.52
2023-02-27T15:43:05.819Z,1.10
2023-02-27T15:45:37.930Z,1.35
2023-02-27T15:48:09.004Z,1.25
2023-02-27T15:50:41.137Z,3.63
2023-02-27T15:53:17.498Z,1.67
2023-02-27T15:55:49.592Z,2.90
2023-02-27T15:58:27.188Z,6.35
2023-02-27T16:01:01.794Z,2.05
2023-02-27T16:03:34.473Z,2.28
2023-02-27T16:06:04.889Z,1.00
2023-02-27T16:08:35.318Z,1.30
2023-02-27T16:11:05.726Z,3.20
2023-02-27T16:13:41.586Z,2.25
2023-02-27T16:16:28.183Z,2.30
2023-02-27T16:18:59.511Z,3.33
2023-02-27T16:21:31.247Z,1.83
2023-02-27T16:24:16.271Z,3.65
2023-02-27T16:26:46.529Z,2.55
2023-02-27T16:29:22.567Z,2.15
2023-02-27T16:31:54.831Z,4.25
2023-02-27T16:34:42.884Z,1.85
2023-02-27T16:37:21.337Z,3.10
2023-02-27T16:39:54.490Z,5.70
2023-02-27T16:42:25.004Z,2.78
2023-02-27T16:44:57.889Z,1.38
2023-02-27T16:47:29.034Z,2.75
2023-02-27T16:49:59.482Z,1.13
2023-02-27T16:52:29.727Z,2.45
2023-02-27T16:55:00.007Z,3.17
2023-02-27T16:57:31.040Z,7.35
2023-02-27T17:00:06.069Z,5.10
2023-02-27T17:02:36.310Z,4.32
2023-02-27T17:05:06.670Z,3.67
2023-02-27T17:07:36.936Z,4.10
2023-02-27T17:10:07.450Z,1.45
2023-02-27T17:12:37.712Z,2.45
2023-02-27T17:15:11.135Z,2.60
2023-02-27T17:17:41.424Z,3.15
2023-02-27T17:20:12.866Z,3.38
2023-02-27T17:25:14.231Z,4.53
2023-02-27T17:27:46.211Z,1.60
2023-02-27T17:30:19.428Z,1.83
2023-02-27T17:32:50.472Z,3.45
2023-02-27T17:35:20.858Z,3.60
2023-02-27T17:37:51.112Z,3.22
2023-02-27T17:40:21.470Z,2.40
2023-02-27T17:42:51.762Z,2.55
2023-02-27T17:45:27.241Z,6.22
2023-02-27T17:47:57.522Z,3.42
2023-02-27T17:50:27.801Z,2.70
2023-02-27T17:52:58.055Z,4.15
2023-02-27T17:55:28.591Z,2.83
2023-02-27T17:57:58.879Z,3.63
2023-02-27T18:00:32.175Z,1.95
2023-02-27T18:03:02.624Z,3.50
2023-02-27T18:05:33.065Z,3.08
2023-02-27T18:08:03.307Z,3.58
2023-02-27T18:10:33.586Z,10.07
2023-02-27T18:13:05.370Z,5.60
2023-02-27T18:15:38.461Z,4.47
2023-02-27T18:18:08.828Z,8.00
2023-02-27T18:20:40.531Z,3.03
2023-02-27T18:23:11.486Z,5.47
2023-02-27T18:25:42.541Z,4.88
2023-02-27T18:28:14.039Z,4.75
2023-02-27T18:33:16.897Z,6.13
2023-02-27T18:35:47.219Z,5.93
2023-02-27T18:38:17.503Z,4.85
2023-02-27T18:40:47.910Z,5.57
2023-02-27T18:43:18.233Z,5.38
2023-02-27T18:45:48.797Z,20.33
2023-02-27T18:48:21.618Z,4.85
2023-02-27T18:50:52.016Z,8.75
2023-02-27T18:53:22.302Z,5.75
2023-02-27T18:55:52.582Z,5.55
2023-02-27T18:58:22.819Z,5.22
2023-02-27T19:00:53.126Z,6.45
2023-02-27T19:03:26.024Z,10.40
2023-02-27T19:05:57.011Z,17.58
2023-02-27T19:08:29.237Z,9.30
2023-02-27T19:10:59.604Z,6.07
2023-02-27T19:13:30.106Z,11.50
2023-02-27T19:16:01.063Z,10.70
2023-02-27T19:18:33.937Z,9.30
2023-02-27T19:21:07.734Z,13.43
2023-02-27T19:23:39.069Z,7.00
2023-02-27T19:26:09.590Z,9.85
2023-02-27T19:28:39.839Z,5.85
2023-02-27T19:31:11.309Z,9.38
2023-02-27T19:36:15.707Z,6.57
2023-02-27T19:38:46.129Z,8.10
2023-02-27T19:41:17.531Z,7.03
2023-02-27T19:43:48.542Z,8.30
2023-02-27T19:46:20.054Z,8.88
2023-02-27T19:48:50.717Z,11.63
2023-02-27T19:51:24.249Z,7.57
2023-02-27T19:53:54.681Z,6.55
2023-02-27T19:56:26.644Z,8.23
2023-02-27T19:58:57.888Z,5.20
2023-02-27T20:01:29.188Z,12.73
2023-02-27T20:03:59.708Z,6.82
2023-02-27T20:06:33.993Z,6.55
2023-02-27T20:09:04.326Z,6.75
2023-02-27T20:11:35.428Z,5.72
2023-02-27T20:14:06.269Z,7.57
2023-02-27T20:16:37.606Z,7.78
2023-02-27T20:19:10.170Z,8.13
2023-02-27T20:21:43.179Z,6.53
2023-02-27T20:24:14.466Z,6.38
2023-02-27T20:26:46.249Z,5.78
2023-02-27T20:29:17.354Z,5.43
2023-02-27T20:31:49.157Z,6.40
2023-02-27T20:34:21.941Z,8.50
2023-02-27T20:36:55.152Z,8.98
2023-02-27T20:39:25.581Z,15.10
2023-02-27T20:41:55.895Z,14.20
2023-02-27T20:44:26.286Z,10.40
2023-02-27T20:46:56.814Z,7.95
2023-02-27T20:49:27.038Z,13.85
2023-02-27T20:51:59.977Z,11.20
2023-02-27T20:54:30.222Z,13.45
2023-02-27T20:57:00.472Z,14.73
2023-02-27T20:59:30.822Z,9.85
2023-02-27T21:02:02.417Z,6.53
2023-02-27T21:04:43.385Z,7.13
2023-02-27T21:07:18.657Z,6.90
2023-02-27T21:09:49.078Z,7.93
2023-02-27T21:12:19.791Z,5.40
2023-02-27T21:14:50.188Z,6.95
2023-02-27T21:17:20.447Z,7.25
2023-02-27T21:19:52.302Z,6.35
2023-02-27T21:22:25.157Z,7.32
2023-02-27T21:24:55.369Z,6.85
2023-02-27T21:27:25.677Z,7.05
2023-02-27T21:29:55.915Z,4.65
2023-02-27T21:32:26.215Z,7.57
2023-02-27T21:34:56.498Z,9.10
2023-02-27T21:37:29.311Z,6.70
2023-02-27T21:40:01.881Z,7.80
2023-02-27T21:42:32.172Z,7.60
2023-02-27T21:45:02.423Z,6.30
2023-02-27T21:47:32.787Z,19.13
2023-02-27T21:50:03.048Z,8.00
2023-02-27T21:52:35.964Z,6.22
2023-02-27T21:55:06.355Z,7.35
2023-02-27T21:57:36.633Z,6.35
2023-02-27T22:00:07.806Z,4.82
2023-02-27T22:02:38.053Z,5.45
2023-02-27T22:05:08.551Z,4.95
2023-02-27T22:07:41.497Z,6.50
2023-02-27T22:10:12.606Z,7.97
2023-02-27T22:12:42.887Z,15.55
2023-02-27T22:15:13.671Z,14.00
2023-02-27T22:17:43.947Z,9.65
2023-02-27T22:20:15.160Z,7.22
2023-02-27T22:22:47.980Z,8.00
2023-02-27T22:25:18.184Z,8.32
2023-02-27T22:27:48.476Z,9.48
2023-02-27T22:30:18.870Z,10.25
2023-02-27T22:32:49.259Z,12.75
2023-02-27T22:35:19.593Z,9.45
2023-02-27T22:37:52.635Z,8.88
2023-02-27T22:40:23.160Z,5.85
2023-02-27T22:42:53.434Z,5.90
2023-02-27T22:45:23.855Z,6.22
2023-02-27T22:47:54.150Z,9.90
2023-02-27T22:50:24.431Z,9.20
2023-02-27T22:52:57.273Z,7.43
2023-02-27T22:55:27.513Z,4.80
2023-02-27T22:57:58.351Z,8.80
2023-02-27T23:00:28.581Z,5.75
2023-02-27T23:02:58.827Z,6.78
2023-02-27T23:05:29.128Z,6.63
2023-02-27T23:08:02.018Z,4.72
2023-02-27T23:10:32.223Z,6.47
2023-02-27T23:13:02.616Z,6.55
2023-02-27T23:15:32.941Z,7.28
2023-02-27T23:18:03.209Z,7.53
2023-02-27T23:20:33.433Z,5.75
2023-02-27T23:23:06.303Z,4.75
2023-02-27T23:25:36.769Z,6.60
2023-02-27T23:28:07.632Z,4.95
2023-02-27T23:30:38.078Z,6.72
2023-02-27T23:33:08.369Z,7.05
2023-02-27T23:35:38.581Z,4.75
2023-02-27T23:38:11.415Z,6.90
2023-02-27T23:40:41.653Z,8.82
2023-02-27T23:43:11.872Z,5.05
2023-02-27T23:45:42.139Z,6.22
2023-02-27T23:48:12.630Z,5.50
2023-02-27T23:50:43.901Z,7.03
2023-02-27T23:53:17.053Z,9.65
2023-02-27T23:55:47.297Z,5.20
2023-02-27T23:58:17.687Z,7.10
